sensor_id;sensor_type;location;lat;lon;timestamp;P1;durP1;ratioP1;P2;durP2;ratioP2
15142;SDS011;7672;50.834;6.286;2023-12-04T00:01:51;15.83;;;8.63;;
15142;SDS011;7672;50.834;6.286;2023-12-04T00:04:18;20.23;;;9.93;;
15142;SDS011;7672;50.834;6.286;2023-12-04T00:06:45;20.17;;;9.47;;
15142;SDS011;7672;50.834;6.286;2023-12-04T00:09:12;13.03;;;5.50;;
15142;SDS011;7672;50.834;6.286;2023-12-04T00:11:39;10.67;;;5.03;;
15142;SDS011;7672;50.834;6.286;2023-12-04T00:14:06;9.67;;;3.60;;
15142;SDS011;7672;50.834;6.286;2023-12-04T00:16:34;3.70;;;2.80;;
15142;SDS011;7672;50.834;6.286;2023-12-04T00:19:03;7.17;;;3.47;;
15142;SDS011;7672;50.834;6.286;2023-12-04T00:21:30;4.53;;;3.00;;
15142;SDS011;7672;50.834;6.286;2023-12-04T00:23:57;3.50;;;2.70;;
15142;SDS011;7672;50.834;6.286;2023-12-04T00:26:24;4.53;;;2.77;;
15142;SDS011;7672;50.834;6.286;2023-12-04T00:28:51;3.03;;;2.30;;
15142;SDS011;7672;50.834;6.286;2023-12-04T00:31:18;2.83;;;2.50;;
15142;SDS011;7672;50.834;6.286;2023-12-04T00:33:45;3.43;;;2.53;;
15142;SDS011;7672;50.834;6.286;2023-12-04T00:36:12;3.33;;;2.63;;
15142;SDS011;7672;50.834;6.286;2023-12-04T00:38:39;4.07;;;3.13;;
15142;SDS011;7672;50.834;6.286;2023-12-04T00:41:06;3.60;;;2.70;;
15142;SDS011;7672;50.834;6.286;2023-12-04T00:43:34;4.30;;;3.37;;
15142;SDS011;7672;50.834;6.286;2023-12-04T00:46:00;4.13;;;3.10;;
15142;SDS011;7672;50.834;6.286;2023-12-04T00:48:28;6.10;;;4.00;;
15142;SDS011;7672;50.834;6.286;2023-12-04T00:50:57;5.50;;;3.97;;
15142;SDS011;7672;50.834;6.286;2023-12-04T00:53:24;7.27;;;4.60;;
15142;SDS011;7672;50.834;6.286;2023-12-04T00:55:51;7.73;;;4.60;;
15142;SDS011;7672;50.834;6.286;2023-12-04T00:58:18;7.67;;;4.30;;
15142;SDS011;7672;50.834;6.286;2023-12-04T01:00:45;8.00;;;4.47;;
15142;SDS011;7672;50.834;6.286;2023-12-04T01:03:14;7.20;;;4.40;;
15142;SDS011;7672;50.834;6.286;2023-12-04T01:05:41;8.50;;;4.77;;
15142;SDS011;7672;50.834;6.286;2023-12-04T01:08:08;9.07;;;4.87;;
15142;SDS011;7672;50.834;6.286;2023-12-04T01:10:35;8.43;;;4.83;;
15142;SDS011;7672;50.834;6.286;2023-12-04T01:13:02;10.77;;;5.07;;
15142;SDS011;7672;50.834;6.286;2023-12-04T01:15:29;9.60;;;4.83;;
15142;SDS011;7672;50.834;6.286;2023-12-04T01:17:56;5.60;;;4.23;;
15142;SDS011;7672;50.834;6.286;2023-12-04T01:20:23;7.67;;;4.67;;
15142;SDS011;7672;50.834;6.286;2023-12-04T01:22:50;8.53;;;4.90;;
15142;SDS011;7672;50.834;6.286;2023-12-04T01:25:17;7.23;;;3.93;;
15142;SDS011;7672;50.834;6.286;2023-12-04T01:27:45;6.70;;;4.57;;
15142;SDS011;7672;50.834;6.286;2023-12-04T01:30:12;8.83;;;4.97;;
15142;SDS011;7672;50.834;6.286;2023-12-04T01:32:40;6.90;;;4.03;;
15142;SDS011;7672;50.834;6.286;2023-12-04T01:35:07;9.23;;;4.03;;
15142;SDS011;7672;50.834;6.286;2023-12-04T01:37:34;7.20;;;4.43;;
15142;SDS011;7672;50.834;6.286;2023-12-04T01:40:03;6.63;;;4.30;;
15142;SDS011;7672;50.834;6.286;2023-12-04T01:42:33;10.03;;;4.47;;
15142;SDS011;7672;50.834;6.286;2023-12-04T01:45:00;8.80;;;4.37;;
15142;SDS011;7672;50.834;6.286;2023-12-04T01:47:27;7.13;;;4.07;;
15142;SDS011;7672;50.834;6.286;2023-12-04T01:49:55;9.13;;;4.93;;
15142;SDS011;7672;50.834;6.286;2023-12-04T01:52:22;5.97;;;3.73;;
15142;SDS011;7672;50.834;6.286;2023-12-04T01:54:50;5.70;;;3.87;;
15142;SDS011;7672;50.834;6.286;2023-12-04T01:57:18;6.87;;;3.70;;
15142;SDS011;7672;50.834;6.286;2023-12-04T01:59:45;5.13;;;3.67;;
15142;SDS011;7672;50.834;6.286;2023-12-04T02:02:13;6.63;;;4.07;;
15142;SDS011;7672;50.834;6.286;2023-12-04T02:04:40;6.80;;;4.20;;
15142;SDS011;7672;50.834;6.286;2023-12-04T02:07:07;5.40;;;3.90;;
15142;SDS011;7672;50.834;6.286;2023-12-04T02:09:36;4.97;;;3.73;;
15142;SDS011;7672;50.834;6.286;2023-12-04T02:12:04;7.47;;;4.10;;
15142;SDS011;7672;50.834;6.286;2023-12-04T02:14:32;3.80;;;3.17;;
15142;SDS011;7672;50.834;6.286;2023-12-04T02:17:00;7.37;;;4.07;;
15142;SDS011;7672;50.834;6.286;2023-12-04T02:19:28;5.57;;;3.63;;
15142;SDS011;7672;50.834;6.286;2023-12-04T02:21:56;6.50;;;3.60;;
15142;SDS011;7672;50.834;6.286;2023-12-04T02:24:23;3.53;;;3.00;;
15142;SDS011;7672;50.834;6.286;2023-12-04T02:26:52;5.40;;;3.80;;
15142;SDS011;7672;50.834;6.286;2023-12-04T02:29:29;4.40;;;3.40;;
15142;SDS011;7672;50.834;6.286;2023-12-04T02:32:00;7.30;;;3.83;;
15142;SDS011;7672;50.834;6.286;2023-12-04T02:34:32;5.60;;;3.80;;
15142;SDS011;7672;50.834;6.286;2023-12-04T02:37:01;5.80;;;4.13;;
15142;SDS011;7672;50.834;6.286;2023-12-04T02:39:29;6.50;;;3.70;;
15142;SDS011;7672;50.834;6.286;2023-12-04T02:41:56;5.27;;;3.90;;
15142;SDS011;7672;50.834;6.286;2023-12-04T02:44:23;5.90;;;4.17;;
15142;SDS011;7672;50.834;6.286;2023-12-04T02:46:50;5.43;;;3.80;;
15142;SDS011;7672;50.834;6.286;2023-12-04T02:49:17;7.80;;;4.60;;
15142;SDS011;7672;50.834;6.286;2023-12-04T02:51:44;7.07;;;4.77;;
15142;SDS011;7672;50.834;6.286;2023-12-04T02:54:11;7.60;;;5.30;;
15142;SDS011;7672;50.834;6.286;2023-12-04T02:56:38;8.87;;;4.50;;
15142;SDS011;7672;50.834;6.286;2023-12-04T02:59:05;7.93;;;4.87;;
15142;SDS011;7672;50.834;6.286;2023-12-04T03:01:32;5.60;;;3.87;;
15142;SDS011;7672;50.834;6.286;2023-12-04T03:03:59;6.67;;;4.97;;
15142;SDS011;7672;50.834;6.286;2023-12-04T03:06:26;6.00;;;4.27;;
15142;SDS011;7672;50.834;6.286;2023-12-04T03:08:53;5.77;;;4.10;;
15142;SDS011;7672;50.834;6.286;2023-12-04T03:11:20;6.13;;;4.27;;
15142;SDS011;7672;50.834;6.286;2023-12-04T03:13:47;6.90;;;4.63;;
15142;SDS011;7672;50.834;6.286;2023-12-04T03:16:15;6.23;;;4.40;;
15142;SDS011;7672;50.834;6.286;2023-12-04T03:18:43;5.60;;;4.30;;
15142;SDS011;7672;50.834;6.286;2023-12-04T03:21:10;8.30;;;4.63;;
15142;SDS011;7672;50.834;6.286;2023-12-04T03:23:38;6.10;;;4.63;;
15142;SDS011;7672;50.834;6.286;2023-12-04T03:26:05;10.63;;;4.73;;
15142;SDS011;7672;50.834;6.286;2023-12-04T03:28:32;6.43;;;4.20;;
15142;SDS011;7672;50.834;6.286;2023-12-04T03:30:59;7.30;;;4.57;;
15142;SDS011;7672;50.834;6.286;2023-12-04T03:33:26;6.10;;;4.20;;
15142;SDS011;7672;50.834;6.286;2023-12-04T03:35:53;7.77;;;4.13;;
15142;SDS011;7672;50.834;6.286;2023-12-04T03:38:20;4.67;;;4.10;;
15142;SDS011;7672;50.834;6.286;2023-12-04T03:40:47;6.10;;;3.90;;
15142;SDS011;7672;50.834;6.286;2023-12-04T03:43:14;5.50;;;4.10;;
15142;SDS011;7672;50.834;6.286;2023-12-04T03:45:41;5.97;;;4.10;;
15142;SDS011;7672;50.834;6.286;2023-12-04T03:48:08;7.90;;;3.77;;
15142;SDS011;7672;50.834;6.286;2023-12-04T03:50:35;5.00;;;3.57;;
15142;SDS011;7672;50.834;6.286;2023-12-04T03:53:02;3.90;;;3.07;;
15142;SDS011;7672;50.834;6.286;2023-12-04T03:55:29;3.77;;;3.10;;
15142;SDS011;7672;50.834;6.286;2023-12-04T03:57:56;5.40;;;3.57;;
15142;SDS011;7672;50.834;6.286;2023-12-04T04:00:24;4.90;;;3.43;;
15142;SDS011;7672;50.834;6.286;2023-12-04T04:02:51;5.17;;;3.50;;
15142;SDS011;7672;50.834;6.286;2023-12-04T04:05:18;4.97;;;3.07;;
15142;SDS011;7672;50.834;6.286;2023-12-04T04:07:45;4.43;;;3.27;;
15142;SDS011;7672;50.834;6.286;2023-12-04T04:10:12;5.40;;;3.40;;
15142;SDS011;7672;50.834;6.286;2023-12-04T04:12:39;4.17;;;3.40;;
15142;SDS011;7672;50.834;6.286;2023-12-04T04:15:06;5.70;;;3.27;;
15142;SDS011;7672;50.834;6.286;2023-12-04T04:17:33;4.60;;;3.60;;
15142;SDS011;7672;50.834;6.286;2023-12-04T04:20:01;4.90;;;3.80;;
15142;SDS011;7672;50.834;6.286;2023-12-04T04:22:29;4.33;;;3.47;;
15142;SDS011;7672;50.834;6.286;2023-12-04T04:24:57;4.77;;;3.50;;
15142;SDS011;7672;50.834;6.286;2023-12-04T04:27:26;6.40;;;3.17;;
15142;SDS011;7672;50.834;6.286;2023-12-04T04:29:54;3.73;;;3.17;;
15142;SDS011;7672;50.834;6.286;2023-12-04T04:32:24;6.10;;;3.40;;
15142;SDS011;7672;50.834;6.286;2023-12-04T04:34:51;4.47;;;3.27;;
15142;SDS011;7672;50.834;6.286;2023-12-04T04:38:23;4.37;;;3.33;;
15142;SDS011;7672;50.834;6.286;2023-12-04T04:41:00;5.20;;;2.90;;
15142;SDS011;7672;50.834;6.286;2023-12-04T04:43:52;3.87;;;2.67;;
15142;SDS011;7672;50.834;6.286;2023-12-04T04:46:24;4.40;;;3.70;;
15142;SDS011;7672;50.834;6.286;2023-12-04T04:49:51;4.37;;;3.30;;
15142;SDS011;7672;50.834;6.286;2023-12-04T05:04:32;5.43;;;3.27;;
15142;SDS011;7672;50.834;6.286;2023-12-04T05:06:59;5.63;;;3.30;;
15142;SDS011;7672;50.834;6.286;2023-12-04T05:09:26;4.63;;;3.20;;
15142;SDS011;7672;50.834;6.286;2023-12-04T05:11:53;3.00;;;2.63;;
15142;SDS011;7672;50.834;6.286;2023-12-04T05:14:23;3.47;;;2.87;;
15142;SDS011;7672;50.834;6.286;2023-12-04T05:16:50;4.93;;;3.07;;
15142;SDS011;7672;50.834;6.286;2023-12-04T05:19:17;3.50;;;2.47;;
15142;SDS011;7672;50.834;6.286;2023-12-04T05:21:44;3.87;;;2.93;;
15142;SDS011;7672;50.834;6.286;2023-12-04T05:24:11;5.27;;;3.47;;
15142;SDS011;7672;50.834;6.286;2023-12-04T05:26:38;4.47;;;3.10;;
15142;SDS011;7672;50.834;6.286;2023-12-04T05:29:10;4.87;;;2.80;;
15142;SDS011;7672;50.834;6.286;2023-12-04T05:31:37;3.83;;;3.00;;
15142;SDS011;7672;50.834;6.286;2023-12-04T05:34:04;5.40;;;3.37;;
15142;SDS011;7672;50.834;6.286;2023-12-04T05:36:32;2.97;;;2.60;;
15142;SDS011;7672;50.834;6.286;2023-12-04T05:38:59;3.97;;;2.70;;
15142;SDS011;7672;50.834;6.286;2023-12-04T05:41:27;2.83;;;2.40;;
15142;SDS011;7672;50.834;6.286;2023-12-04T05:44:06;2.70;;;2.43;;
15142;SDS011;7672;50.834;6.286;2023-12-04T05:46:39;5.07;;;3.13;;
15142;SDS011;7672;50.834;6.286;2023-12-04T05:49:17;3.90;;;2.83;;
15142;SDS011;7672;50.834;6.286;2023-12-04T05:52:12;4.33;;;2.90;;
15142;SDS011;7672;50.834;6.286;2023-12-04T05:54:39;3.70;;;2.60;;
15142;SDS011;7672;50.834;6.286;2023-12-04T05:57:06;2.83;;;2.43;;
15142;SDS011;7672;50.834;6.286;2023-12-04T05:59:33;4.37;;;2.60;;
15142;SDS011;7672;50.834;6.286;2023-12-04T06:02:06;3.20;;;2.53;;
15142;SDS011;7672;50.834;6.286;2023-12-04T06:22:19;3.47;;;2.43;;
15142;SDS011;7672;50.834;6.286;2023-12-04T06:24:50;3.33;;;2.37;;
15142;SDS011;7672;50.834;6.286;2023-12-04T06:27:23;3.17;;;2.87;;
15142;SDS011;7672;50.834;6.286;2023-12-04T06:30:12;4.73;;;2.90;;
15142;SDS011;7672;50.834;6.286;2023-12-04T06:33:08;3.17;;;2.40;;
15142;SDS011;7672;50.834;6.286;2023-12-04T06:35:53;3.33;;;2.50;;
15142;SDS011;7672;50.834;6.286;2023-12-04T06:38:22;3.13;;;2.23;;
15142;SDS011;7672;50.834;6.286;2023-12-04T06:40:52;3.73;;;2.60;;
15142;SDS011;7672;50.834;6.286;2023-12-04T06:43:20;3.20;;;2.37;;
15142;SDS011;7672;50.834;6.286;2023-12-04T06:45:55;2.30;;;2.10;;
15142;SDS011;7672;50.834;6.286;2023-12-04T06:48:31;2.83;;;2.40;;
15142;SDS011;7672;50.834;6.286;2023-12-04T06:51:01;6.33;;;2.77;;
15142;SDS011;7672;50.834;6.286;2023-12-04T06:53:28;4.90;;;3.13;;
15142;SDS011;7672;50.834;6.286;2023-12-04T06:55:57;3.73;;;2.67;;
15142;SDS011;7672;50.834;6.286;2023-12-04T06:58:30;7.97;;;4.00;;
15142;SDS011;7672;50.834;6.286;2023-12-04T07:01:16;4.10;;;3.23;;
15142;SDS011;7672;50.834;6.286;2023-12-04T07:03:48;5.30;;;3.23;;
15142;SDS011;7672;50.834;6.286;2023-12-04T07:06:18;6.10;;;2.60;;
15142;SDS011;7672;50.834;6.286;2023-12-04T07:09:14;7.13;;;4.57;;
15142;SDS011;7672;50.834;6.286;2023-12-04T07:11:49;5.83;;;4.10;;
15142;SDS011;7672;50.834;6.286;2023-12-04T07:14:30;9.47;;;3.47;;
15142;SDS011;7672;50.834;6.286;2023-12-04T07:17:01;3.90;;;3.33;;
15142;SDS011;7672;50.834;6.286;2023-12-04T07:54:28;9.90;;;6.97;;
15142;SDS011;7672;50.834;6.286;2023-12-04T07:56:56;10.47;;;7.20;;
15142;SDS011;7672;50.834;6.286;2023-12-04T07:59:23;13.13;;;7.10;;
15142;SDS011;7672;50.834;6.286;2023-12-04T08:01:50;11.17;;;7.57;;
15142;SDS011;7672;50.834;6.286;2023-12-04T08:04:18;11.40;;;7.53;;
15142;SDS011;7672;50.834;6.286;2023-12-04T08:06:45;12.97;;;8.00;;
15142;SDS011;7672;50.834;6.286;2023-12-04T08:09:14;14.00;;;7.93;;
15142;SDS011;7672;50.834;6.286;2023-12-04T08:12:16;10.57;;;7.67;;
15142;SDS011;7672;50.834;6.286;2023-12-04T08:19:09;14.47;;;8.60;;
15142;SDS011;7672;50.834;6.286;2023-12-04T08:21:53;13.00;;;8.13;;
15142;SDS011;7672;50.834;6.286;2023-12-04T08:24:58;12.77;;;8.47;;
15142;SDS011;7672;50.834;6.286;2023-12-04T08:27:37;10.03;;;6.90;;
15142;SDS011;7672;50.834;6.286;2023-12-04T08:30:23;11.27;;;6.53;;
15142;SDS011;7672;50.834;6.286;2023-12-04T08:32:51;12.37;;;7.50;;
15142;SDS011;7672;50.834;6.286;2023-12-04T08:35:33;10.43;;;6.90;;
15142;SDS011;7672;50.834;6.286;2023-12-04T08:38:34;11.07;;;7.30;;
15142;SDS011;7672;50.834;6.286;2023-12-04T08:41:45;9.17;;;7.13;;
15142;SDS011;7672;50.834;6.286;2023-12-04T08:44:27;10.67;;;6.33;;
15142;SDS011;7672;50.834;6.286;2023-12-04T08:46:54;8.93;;;5.70;;
15142;SDS011;7672;50.834;6.286;2023-12-04T08:49:24;7.80;;;5.10;;
15142;SDS011;7672;50.834;6.286;2023-12-04T08:52:04;8.53;;;4.87;;
15142;SDS011;7672;50.834;6.286;2023-12-04T08:54:32;9.20;;;4.53;;
15142;SDS011;7672;50.834;6.286;2023-12-04T08:56:59;6.43;;;4.27;;
15142;SDS011;7672;50.834;6.286;2023-12-04T08:59:28;4.27;;;3.70;;
15142;SDS011;7672;50.834;6.286;2023-12-04T09:01:56;5.47;;;3.90;;
15142;SDS011;7672;50.834;6.286;2023-12-04T09:04:30;4.47;;;3.33;;
15142;SDS011;7672;50.834;6.286;2023-12-04T09:07:02;6.33;;;3.50;;
15142;SDS011;7672;50.834;6.286;2023-12-04T09:09:32;4.83;;;3.70;;
15142;SDS011;7672;50.834;6.286;2023-12-04T09:12:00;6.17;;;3.23;;
15142;SDS011;7672;50.834;6.286;2023-12-04T09:14:27;5.80;;;3.40;;
15142;SDS011;7672;50.834;6.286;2023-12-04T09:16:58;8.90;;;4.00;;
15142;SDS011;7672;50.834;6.286;2023-12-04T09:19:24;5.10;;;3.13;;
15142;SDS011;7672;50.834;6.286;2023-12-04T09:21:52;7.33;;;3.40;;
15142;SDS011;7672;50.834;6.286;2023-12-04T09:24:33;3.97;;;2.90;;
15142;SDS011;7672;50.834;6.286;2023-12-04T09:27:01;6.63;;;3.93;;
15142;SDS011;7672;50.834;6.286;2023-12-04T09:29:28;5.57;;;3.20;;
15142;SDS011;7672;50.834;6.286;2023-12-04T09:31:56;7.17;;;4.00;;
15142;SDS011;7672;50.834;6.286;2023-12-04T09:34:23;7.83;;;4.43;;
15142;SDS011;7672;50.834;6.286;2023-12-04T09:36:54;6.30;;;4.20;;
15142;SDS011;7672;50.834;6.286;2023-12-04T09:39:33;6.13;;;3.77;;
15142;SDS011;7672;50.834;6.286;2023-12-04T09:42:01;5.53;;;3.70;;
15142;SDS011;7672;50.834;6.286;2023-12-04T09:44:32;7.07;;;3.50;;
15142;SDS011;7672;50.834;6.286;2023-12-04T09:47:00;4.20;;;3.23;;
15142;SDS011;7672;50.834;6.286;2023-12-04T09:49:29;6.13;;;3.70;;
15142;SDS011;7672;50.834;6.286;2023-12-04T09:51:58;7.60;;;4.00;;
15142;SDS011;7672;50.834;6.286;2023-12-04T09:54:27;6.33;;;4.87;;
15142;SDS011;7672;50.834;6.286;2023-12-04T09:56:56;10.77;;;5.90;;
15142;SDS011;7672;50.834;6.286;2023-12-04T09:59:25;9.07;;;5.23;;
15142;SDS011;7672;50.834;6.286;2023-12-04T10:02:43;5.30;;;3.90;;
15142;SDS011;7672;50.834;6.286;2023-12-04T10:06:46;4.97;;;3.80;;
15142;SDS011;7672;50.834;6.286;2023-12-04T10:10:27;6.23;;;4.40;;
15142;SDS011;7672;50.834;6.286;2023-12-04T10:13:54;8.03;;;4.27;;
15142;SDS011;7672;50.834;6.286;2023-12-04T10:16:36;8.63;;;4.33;;
15142;SDS011;7672;50.834;6.286;2023-12-04T10:19:57;6.60;;;4.17;;
15142;SDS011;7672;50.834;6.286;2023-12-04T10:23:22;8.33;;;5.10;;
15142;SDS011;7672;50.834;6.286;2023-12-04T10:27:14;6.67;;;4.00;;
15142;SDS011;7672;50.834;6.286;2023-12-04T10:30:27;5.87;;;3.33;;
15142;SDS011;7672;50.834;6.286;2023-12-04T10:32:55;3.57;;;2.80;;
15142;SDS011;7672;50.834;6.286;2023-12-04T10:35:31;4.23;;;3.17;;
15142;SDS011;7672;50.834;6.286;2023-12-04T10:37:59;4.63;;;3.00;;
15142;SDS011;7672;50.834;6.286;2023-12-04T10:45:45;6.93;;;3.77;;
15142;SDS011;7672;50.834;6.286;2023-12-04T10:49:57;3.70;;;3.00;;
15142;SDS011;7672;50.834;6.286;2023-12-04T10:52:24;3.57;;;2.50;;
15142;SDS011;7672;50.834;6.286;2023-12-04T10:54:53;4.23;;;2.77;;
15142;SDS011;7672;50.834;6.286;2023-12-04T10:58:29;3.07;;;2.43;;
15142;SDS011;7672;50.834;6.286;2023-12-04T11:02:05;5.60;;;2.87;;
15142;SDS011;7672;50.834;6.286;2023-12-04T11:16:44;5.07;;;3.30;;
15142;SDS011;7672;50.834;6.286;2023-12-04T11:22:09;4.63;;;2.90;;
15142;SDS011;7672;50.834;6.286;2023-12-04T11:24:38;4.67;;;3.03;;
15142;SDS011;7672;50.834;6.286;2023-12-04T11:27:06;5.87;;;3.30;;
15142;SDS011;7672;50.834;6.286;2023-12-04T11:29:35;7.33;;;3.60;;
15142;SDS011;7672;50.834;6.286;2023-12-04T11:32:08;5.27;;;3.00;;
15142;SDS011;7672;50.834;6.286;2023-12-04T11:35:01;9.10;;;2.83;;
15142;SDS011;7672;50.834;6.286;2023-12-04T11:37:31;7.50;;;3.30;;
15142;SDS011;7672;50.834;6.286;2023-12-04T11:40:16;11.80;;;8.10;;
15142;SDS011;7672;50.834;6.286;2023-12-04T11:42:44;6.93;;;4.73;;
15142;SDS011;7672;50.834;6.286;2023-12-04T11:45:20;6.93;;;4.17;;
15142;SDS011;7672;50.834;6.286;2023-12-04T11:47:55;5.95;;;3.90;;
15142;SDS011;7672;50.834;6.286;2023-12-04T11:50:24;4.83;;;3.10;;
15142;SDS011;7672;50.834;6.286;2023-12-04T11:52:53;3.23;;;2.93;;
15142;SDS011;7672;50.834;6.286;2023-12-04T11:58:41;4.90;;;3.33;;
15142;SDS011;7672;50.834;6.286;2023-12-04T12:01:10;4.63;;;3.77;;
15142;SDS011;7672;50.834;6.286;2023-12-04T12:03:38;4.63;;;3.93;;
15142;SDS011;7672;50.834;6.286;2023-12-04T12:06:09;4.93;;;3.97;;
15142;SDS011;7672;50.834;6.286;2023-12-04T12:08:41;6.63;;;3.97;;
15142;SDS011;7672;50.834;6.286;2023-12-04T12:11:08;6.13;;;4.30;;
15142;SDS011;7672;50.834;6.286;2023-12-04T12:13:48;5.83;;;4.27;;
15142;SDS011;7672;50.834;6.286;2023-12-04T12:17:43;5.80;;;4.33;;
15142;SDS011;7672;50.834;6.286;2023-12-04T12:20:10;8.50;;;5.30;;
15142;SDS011;7672;50.834;6.286;2023-12-04T12:22:41;6.87;;;4.93;;
15142;SDS011;7672;50.834;6.286;2023-12-04T12:25:17;5.60;;;4.27;;
15142;SDS011;7672;50.834;6.286;2023-12-04T12:27:45;6.97;;;4.93;;
15142;SDS011;7672;50.834;6.286;2023-12-04T12:30:22;6.80;;;4.83;;
15142;SDS011;7672;50.834;6.286;2023-12-04T12:38:50;5.47;;;4.60;;
15142;SDS011;7672;50.834;6.286;2023-12-04T12:50:46;5.80;;;4.47;;
15142;SDS011;7672;50.834;6.286;2023-12-04T12:53:25;7.30;;;5.00;;
15142;SDS011;7672;50.834;6.286;2023-12-04T12:55:52;10.23;;;6.37;;
15142;SDS011;7672;50.834;6.286;2023-12-04T12:58:27;12.83;;;6.50;;
15142;SDS011;7672;50.834;6.286;2023-12-04T13:02:20;9.60;;;6.43;;
15142;SDS011;7672;50.834;6.286;2023-12-04T13:04:50;8.03;;;6.37;;
15142;SDS011;7672;50.834;6.286;2023-12-04T13:07:18;11.30;;;7.87;;
15142;SDS011;7672;50.834;6.286;2023-12-04T13:09:45;10.43;;;8.00;;
15142;SDS011;7672;50.834;6.286;2023-12-04T13:12:14;12.53;;;8.23;;
15142;SDS011;7672;50.834;6.286;2023-12-04T13:14:41;12.43;;;7.73;;
15142;SDS011;7672;50.834;6.286;2023-12-04T13:17:08;11.10;;;7.40;;
15142;SDS011;7672;50.834;6.286;2023-12-04T13:19:36;12.27;;;8.73;;
15142;SDS011;7672;50.834;6.286;2023-12-04T13:22:03;16.97;;;8.87;;
15142;SDS011;7672;50.834;6.286;2023-12-04T13:24:31;11.70;;;8.03;;
15142;SDS011;7672;50.834;6.286;2023-12-04T13:27:00;11.03;;;8.43;;
15142;SDS011;7672;50.834;6.286;2023-12-04T13:29:27;14.23;;;8.27;;
15142;SDS011;7672;50.834;6.286;2023-12-04T13:31:54;11.20;;;7.97;;
15142;SDS011;7672;50.834;6.286;2023-12-04T13:34:21;11.63;;;8.07;;
15142;SDS011;7672;50.834;6.286;2023-12-04T13:36:49;15.03;;;9.17;;
15142;SDS011;7672;50.834;6.286;2023-12-04T13:39:16;12.20;;;8.70;;
15142;SDS011;7672;50.834;6.286;2023-12-04T13:41:46;15.07;;;9.10;;
15142;SDS011;7672;50.834;6.286;2023-12-04T13:44:32;12.20;;;8.10;;
15142;SDS011;7672;50.834;6.286;2023-12-04T13:47:05;11.27;;;7.77;;
15142;SDS011;7672;50.834;6.286;2023-12-04T13:49:36;12.90;;;8.53;;
15142;SDS011;7672;50.834;6.286;2023-12-04T13:52:04;11.57;;;7.80;;
15142;SDS011;7672;50.834;6.286;2023-12-04T13:54:35;11.27;;;8.10;;
15142;SDS011;7672;50.834;6.286;2023-12-04T13:57:16;12.90;;;7.83;;
15142;SDS011;7672;50.834;6.286;2023-12-04T14:00:04;12.73;;;8.70;;
15142;SDS011;7672;50.834;6.286;2023-12-04T14:02:33;10.70;;;7.80;;
15142;SDS011;7672;50.834;6.286;2023-12-04T14:05:05;10.67;;;7.40;;
15142;SDS011;7672;50.834;6.286;2023-12-04T14:07:34;11.23;;;7.80;;
15142;SDS011;7672;50.834;6.286;2023-12-04T14:10:02;13.87;;;8.57;;
15142;SDS011;7672;50.834;6.286;2023-12-04T14:12:30;12.73;;;7.87;;
15142;SDS011;7672;50.834;6.286;2023-12-04T14:14:57;11.50;;;8.40;;
15142;SDS011;7672;50.834;6.286;2023-12-04T14:17:25;14.50;;;8.00;;
15142;SDS011;7672;50.834;6.286;2023-12-04T14:19:55;12.53;;;8.13;;
15142;SDS011;7672;50.834;6.286;2023-12-04T14:22:25;10.17;;;7.70;;
15142;SDS011;7672;50.834;6.286;2023-12-04T14:24:58;12.57;;;7.73;;
15142;SDS011;7672;50.834;6.286;2023-12-04T14:27:26;12.17;;;7.70;;
15142;SDS011;7672;50.834;6.286;2023-12-04T14:29:54;13.17;;;9.53;;
15142;SDS011;7672;50.834;6.286;2023-12-04T14:32:26;9.90;;;7.90;;
15142;SDS011;7672;50.834;6.286;2023-12-04T14:35:03;10.33;;;6.87;;
15142;SDS011;7672;50.834;6.286;2023-12-04T14:37:32;11.70;;;7.90;;
15142;SDS011;7672;50.834;6.286;2023-12-04T14:40:00;11.90;;;8.07;;
15142;SDS011;7672;50.834;6.286;2023-12-04T14:42:33;12.93;;;7.57;;
15142;SDS011;7672;50.834;6.286;2023-12-04T14:45:00;11.17;;;7.23;;
15142;SDS011;7672;50.834;6.286;2023-12-04T14:47:32;11.07;;;7.40;;
15142;SDS011;7672;50.834;6.286;2023-12-04T14:49:59;10.87;;;7.30;;
15142;SDS011;7672;50.834;6.286;2023-12-04T14:55:25;10.40;;;6.20;;
15142;SDS011;7672;50.834;6.286;2023-12-04T14:57:58;16.00;;;7.63;;
15142;SDS011;7672;50.834;6.286;2023-12-04T15:00:30;10.40;;;7.37;;
15142;SDS011;7672;50.834;6.286;2023-12-04T15:03:18;10.90;;;7.27;;
15142;SDS011;7672;50.834;6.286;2023-12-04T15:06:05;10.03;;;6.43;;
15142;SDS011;7672;50.834;6.286;2023-12-04T15:08:54;10.40;;;6.47;;
15142;SDS011;7672;50.834;6.286;2023-12-04T15:11:39;10.60;;;6.70;;
15142;SDS011;7672;50.834;6.286;2023-12-04T15:14:26;9.10;;;6.70;;
15142;SDS011;7672;50.834;6.286;2023-12-04T15:17:04;10.43;;;6.93;;
15142;SDS011;7672;50.834;6.286;2023-12-04T15:19:45;12.03;;;7.60;;
15142;SDS011;7672;50.834;6.286;2023-12-04T15:22:31;14.40;;;7.50;;
15142;SDS011;7672;50.834;6.286;2023-12-04T15:24:59;13.30;;;7.17;;
15142;SDS011;7672;50.834;6.286;2023-12-04T15:27:26;11.57;;;7.07;;
15142;SDS011;7672;50.834;6.286;2023-12-04T15:29:54;9.70;;;7.37;;
15142;SDS011;7672;50.834;6.286;2023-12-04T15:32:22;11.13;;;7.30;;
15142;SDS011;7672;50.834;6.286;2023-12-04T15:34:49;12.80;;;8.57;;
15142;SDS011;7672;50.834;6.286;2023-12-04T15:37:19;10.13;;;7.87;;
15142;SDS011;7672;50.834;6.286;2023-12-04T15:39:47;13.60;;;7.33;;
15142;SDS011;7672;50.834;6.286;2023-12-04T15:42:16;7.67;;;6.00;;
15142;SDS011;7672;50.834;6.286;2023-12-04T15:44:51;9.90;;;6.53;;
15142;SDS011;7672;50.834;6.286;2023-12-04T15:47:19;8.60;;;7.13;;
15142;SDS011;7672;50.834;6.286;2023-12-04T15:50:10;9.23;;;6.53;;
15142;SDS011;7672;50.834;6.286;2023-12-04T15:52:39;10.47;;;6.80;;
15142;SDS011;7672;50.834;6.286;2023-12-04T15:55:11;9.67;;;6.70;;
15142;SDS011;7672;50.834;6.286;2023-12-04T15:57:39;10.53;;;6.97;;
15142;SDS011;7672;50.834;6.286;2023-12-04T16:00:08;11.33;;;7.70;;
15142;SDS011;7672;50.834;6.286;2023-12-04T16:02:41;11.37;;;6.77;;
15142;SDS011;7672;50.834;6.286;2023-12-04T16:05:09;9.63;;;6.90;;
15142;SDS011;7672;50.834;6.286;2023-12-04T16:07:47;10.93;;;7.77;;
15142;SDS011;7672;50.834;6.286;2023-12-04T16:10:18;12.77;;;6.83;;
15142;SDS011;7672;50.834;6.286;2023-12-04T16:12:46;8.97;;;6.60;;
15142;SDS011;7672;50.834;6.286;2023-12-04T16:15:15;12.53;;;7.93;;
15142;SDS011;7672;50.834;6.286;2023-12-04T16:17:45;11.37;;;7.43;;
15142;SDS011;7672;50.834;6.286;2023-12-04T16:20:13;9.17;;;6.60;;
15142;SDS011;7672;50.834;6.286;2023-12-04T16:22:42;8.80;;;6.43;;
15142;SDS011;7672;50.834;6.286;2023-12-04T16:25:11;9.70;;;7.07;;
15142;SDS011;7672;50.834;6.286;2023-12-04T16:27:45;11.60;;;6.70;;
15142;SDS011;7672;50.834;6.286;2023-12-04T16:30:13;9.37;;;7.23;;
15142;SDS011;7672;50.834;6.286;2023-12-04T16:32:41;9.20;;;6.87;;
15142;SDS011;7672;50.834;6.286;2023-12-04T16:35:09;8.93;;;6.80;;
15142;SDS011;7672;50.834;6.286;2023-12-04T16:37:38;9.00;;;6.93;;
15142;SDS011;7672;50.834;6.286;2023-12-04T16:40:07;14.50;;;7.80;;
15142;SDS011;7672;50.834;6.286;2023-12-04T16:42:36;7.63;;;5.93;;
15142;SDS011;7672;50.834;6.286;2023-12-04T16:45:05;12.70;;;7.13;;
15142;SDS011;7672;50.834;6.286;2023-12-04T16:47:34;9.17;;;7.13;;
15142;SDS011;7672;50.834;6.286;2023-12-04T16:50:02;12.23;;;8.00;;
15142;SDS011;7672;50.834;6.286;2023-12-04T16:52:31;9.13;;;7.43;;
15142;SDS011;7672;50.834;6.286;2023-12-04T16:54:59;12.60;;;7.33;;
15142;SDS011;7672;50.834;6.286;2023-12-04T16:57:29;11.83;;;6.93;;
15142;SDS011;7672;50.834;6.286;2023-12-04T16:59:56;10.20;;;7.03;;
15142;SDS011;7672;50.834;6.286;2023-12-04T17:02:24;9.77;;;7.40;;
15142;SDS011;7672;50.834;6.286;2023-12-04T17:04:52;9.87;;;7.40;;
15142;SDS011;7672;50.834;6.286;2023-12-04T17:07:19;11.70;;;8.27;;
15142;SDS011;7672;50.834;6.286;2023-12-04T17:09:47;10.83;;;6.73;;
15142;SDS011;7672;50.834;6.286;2023-12-04T17:12:14;10.67;;;6.33;;
15142;SDS011;7672;50.834;6.286;2023-12-04T17:14:42;10.10;;;6.70;;
15142;SDS011;7672;50.834;6.286;2023-12-04T17:17:09;10.03;;;6.40;;
15142;SDS011;7672;50.834;6.286;2023-12-04T17:19:36;10.83;;;6.53;;
15142;SDS011;7672;50.834;6.286;2023-12-04T17:22:03;8.43;;;6.60;;
15142;SDS011;7672;50.834;6.286;2023-12-04T17:24:30;9.90;;;6.83;;
15142;SDS011;7672;50.834;6.286;2023-12-04T17:26:57;10.03;;;6.10;;